createdAt,value
2023-03-06T00:12:09.980Z,0.50
2023-03-06T00:14:42.419Z,0.50
2023-03-06T00:17:28.973Z,0.40
2023-03-06T00:20:25.983Z,0.30
2023-03-06T00:31:45.503Z,0.20
2023-03-06T00:39:58.664Z,0.10
2023-03-06T00:48:31.008Z,-0.20
2023-03-06T00:51:35.772Z,0.00
2023-03-06T00:56:33.745Z,0.00
2023-03-06T01:07:17.323Z,0.10
2023-03-06T01:12:31.498Z,-0.10
2023-03-06T01:15:28.150Z,-0.40
2023-03-06T01:23:48.704Z,-0.20
2023-03-06T01:36:15.259Z,-0.20
2023-03-06T01:43:47.246Z,-0.20
2023-03-06T01:46:52.054Z,-0.20
2023-03-06T01:49:28.476Z,-0.20
2023-03-06T01:54:28.489Z,-0.40
2023-03-06T01:57:09.659Z,-0.40
2023-03-06T01:59:38.323Z,-0.40
2023-03-06T02:02:11.285Z,-0.50
2023-03-06T02:04:42.614Z,-0.40
2023-03-06T02:07:11.115Z,-0.40
2023-03-06T02:09:42.499Z,-0.40
2023-03-06T02:12:14.434Z,0.10
2023-03-06T02:14:42.248Z,-1.10
2023-03-06T02:17:11.962Z,-0.50
2023-03-06T02:19:58.155Z,1.10
2023-03-06T02:22:33.237Z,-0.50
2023-03-06T02:25:13.496Z,-0.50
2023-03-06T02:30:09.840Z,-0.50
2023-03-06T02:40:12.318Z,-0.60
2023-03-06T02:42:47.306Z,-0.70
2023-03-06T02:45:23.548Z,-0.80
2023-03-06T03:00:21.157Z,-0.70
2023-03-06T03:07:53.895Z,-0.60
2023-03-06T03:20:21.899Z,-0.40
2023-03-06T03:22:54.570Z,-0.40
2023-03-06T03:25:23.515Z,-0.40
2023-03-06T03:27:51.854Z,-0.50
2023-03-06T03:30:20.072Z,-1.30
2023-03-06T03:32:53.770Z,0.70
2023-03-06T03:35:27.270Z,-0.50
2023-03-06T03:37:55.363Z,-0.50
2023-03-06T03:40:23.264Z,-0.50
2023-03-06T04:05:33.286Z,-0.20
2023-03-06T04:10:36.465Z,-1.10
2023-03-06T04:20:30.065Z,1.40
2023-03-06T04:40:32.171Z,-0.70
2023-03-06T04:43:00.843Z,-0.70
2023-03-06T04:45:31.747Z,-0.70
2023-03-06T04:50:31.441Z,-0.80
2023-03-06T04:53:01.014Z,-0.90
2023-03-06T05:00:31.428Z,-0.90
2023-03-06T05:03:00.039Z,-1.00
2023-03-06T05:05:30.978Z,-1.00
2023-03-06T05:08:03.073Z,-1.00
2023-03-06T05:23:01.587Z,2.20
2023-03-06T05:25:28.557Z,-0.30
2023-03-06T05:27:55.627Z,-1.20
2023-03-06T05:32:50.949Z,-1.20
2023-03-06T05:35:23.189Z,-1.20
2023-03-06T05:37:52.727Z,-0.80
2023-03-06T05:42:47.583Z,-0.70
2023-03-06T05:45:14.659Z,-1.60
2023-03-06T05:47:41.795Z,0.50
2023-03-06T05:50:10.638Z,-0.70
2023-03-06T05:52:39.607Z,-0.80
2023-03-06T05:55:07.538Z,-1.60
2023-03-06T06:05:08.271Z,-0.40
2023-03-06T06:22:21.943Z,-1.50
2023-03-06T06:34:39.383Z,-1.20
2023-03-06T06:42:26.168Z,-1.10
2023-03-06T06:47:25.588Z,-1.40
2023-03-06T06:49:54.789Z,-0.80
2023-03-06T07:02:14.017Z,-0.20
2023-03-06T07:32:06.143Z,2.30
2023-03-06T07:34:36.297Z,2.70
2023-03-06T07:37:03.724Z,2.90
2023-03-06T07:41:58.704Z,3.20
2023-03-06T07:44:25.911Z,2.20
2023-03-06T07:46:53.164Z,3.00
2023-03-06T07:49:20.386Z,3.00
2023-03-06T07:51:47.420Z,3.10
2023-03-06T07:54:14.772Z,3.10
2023-03-06T07:56:42.190Z,3.40
2023-03-06T07:59:11.527Z,3.60
2023-03-06T08:09:02.963Z,3.70
2023-03-06T08:11:31.081Z,3.50
2023-03-06T08:16:29.279Z,3.40
2023-03-06T08:18:57.056Z,2.50
2023-03-06T08:21:27.170Z,3.50
2023-03-06T08:23:54.401Z,3.40
2023-03-06T08:26:27.323Z,3.60
2023-03-06T08:28:56.779Z,3.70
2023-03-06T08:31:38.731Z,4.40
2023-03-06T08:34:09.338Z,3.80
2023-03-06T08:36:37.088Z,3.30
2023-03-06T08:39:05.398Z,4.00
2023-03-06T08:41:33.335Z,4.00
2023-03-06T08:44:00.733Z,5.20
2023-03-06T08:46:31.303Z,5.00
2023-03-06T08:48:58.476Z,4.70
2023-03-06T08:53:56.019Z,6.10
2023-03-06T08:56:28.467Z,6.40
2023-03-06T08:58:57.219Z,6.60
2023-03-06T09:01:30.178Z,7.70
2023-03-06T09:03:59.809Z,7.00
2023-03-06T09:06:30.781Z,6.80
2023-03-06T09:08:58.615Z,9.00
2023-03-06T09:11:27.812Z,8.20
2023-03-06T09:13:55.892Z,8.20
2023-03-06T09:16:23.704Z,8.20
2023-03-06T09:18:52.989Z,8.40
2023-03-06T09:21:30.459Z,8.10
2023-03-06T09:26:39.500Z,8.30
2023-03-06T09:29:13.076Z,8.50
2023-03-06T09:31:40.346Z,9.60
2023-03-06T09:34:07.559Z,8.40
2023-03-06T09:36:49.277Z,9.80
2023-03-06T09:39:21.740Z,9.70
2023-03-06T09:41:50.521Z,9.70
2023-03-06T09:44:23.906Z,8.60
2023-03-06T09:47:13.574Z,8.70
2023-03-06T09:50:11.102Z,8.70
2023-03-06T09:52:47.297Z,8.80
2023-03-06T09:55:38.022Z,8.80
2023-03-06T09:58:07.267Z,8.60
2023-03-06T10:00:41.930Z,8.60
2023-03-06T10:03:18.251Z,9.10
2023-03-06T10:05:52.628Z,9.70
2023-03-06T10:08:33.263Z,10.10
2023-03-06T10:11:04.947Z,11.20
2023-03-06T10:13:45.796Z,11.80
2023-03-06T10:16:30.290Z,10.90
2023-03-06T10:19:03.473Z,11.30
2023-03-06T10:21:50.263Z,11.60
2023-03-06T10:24:21.928Z,11.80
2023-03-06T10:27:00.652Z,12.30
2023-03-06T10:29:43.651Z,11.60
2023-03-06T10:32:26.058Z,11.40
2023-03-06T10:34:56.498Z,11.50
2023-03-06T10:37:23.547Z,12.30
2023-03-06T10:39:57.667Z,12.00
2023-03-06T10:42:25.376Z,12.80
2023-03-06T10:45:14.922Z,12.80
2023-03-06T10:47:42.895Z,12.20
2023-03-06T10:50:30.918Z,13.40
2023-03-06T10:53:16.679Z,12.90
2023-03-06T10:55:54.673Z,13.10
2023-03-06T10:58:31.242Z,13.90
2023-03-06T11:01:03.452Z,14.30
2023-03-06T11:03:31.397Z,13.50
2023-03-06T11:06:13.019Z,13.80
2023-03-06T11:08:45.082Z,14.10
2023-03-06T11:11:35.248Z,14.30
2023-03-06T11:14:16.241Z,14.10
2023-03-06T11:16:56.152Z,13.70
2023-03-06T11:19:29.374Z,12.80
2023-03-06T11:22:01.701Z,12.50
2023-03-06T11:24:40.610Z,12.50
2023-03-06T11:27:23.992Z,12.20
2023-03-06T11:29:55.037Z,12.10
2023-03-06T11:32:39.639Z,12.20
2023-03-06T11:35:22.279Z,12.20
2023-03-06T11:38:01.840Z,12.80
2023-03-06T11:40:29.123Z,12.90
2023-03-06T11:43:21.440Z,13.00
2023-03-06T11:45:58.258Z,13.10
2023-03-06T11:48:35.253Z,12.50
2023-03-06T11:51:27.863Z,12.40
2023-03-06T11:53:55.365Z,13.50
2023-03-06T11:56:34.442Z,13.60
2023-03-06T11:59:16.084Z,12.30
2023-03-06T12:02:19.916Z,12.20
2023-03-06T12:05:17.657Z,10.00
2023-03-06T12:07:58.043Z,10.10
2023-03-06T12:10:30.863Z,11.80
2023-03-06T12:13:16.037Z,9.70
2023-03-06T12:15:56.022Z,9.70
2023-03-06T12:18:42.722Z,10.80
2023-03-06T12:21:22.077Z,9.80
2023-03-06T12:23:55.686Z,9.80
2023-03-06T12:26:31.825Z,9.70
2023-03-06T12:29:05.046Z,9.50
2023-03-06T12:31:44.525Z,9.50
2023-03-06T12:34:41.936Z,9.60
2023-03-06T12:37:21.716Z,9.50
2023-03-06T12:40:19.813Z,9.60
2023-03-06T12:43:01.650Z,9.80
2023-03-06T12:45:39.758Z,9.70
2023-03-06T12:48:25.282Z,9.30
2023-03-06T12:50:52.733Z,10.00
2023-03-06T12:53:30.704Z,9.30
2023-03-06T12:56:03.474Z,9.50
2023-03-06T13:03:44.947Z,9.60
2023-03-06T13:06:50.934Z,8.90
2023-03-06T13:09:44.095Z,9.80
2023-03-06T13:12:31.186Z,11.80
2023-03-06T13:15:00.996Z,10.00
2023-03-06T13:17:38.355Z,9.60
2023-03-06T13:20:25.832Z,9.40
2023-03-06T13:22:55.571Z,9.10
2023-03-06T13:27:53.349Z,8.90
2023-03-06T13:30:44.418Z,8.80
2023-03-06T13:33:49.540Z,10.40
2023-03-06T13:36:33.272Z,8.60
2023-03-06T13:39:10.214Z,8.60
2023-03-06T13:41:58.851Z,8.60
2023-03-06T13:44:25.885Z,8.60
2023-03-06T13:46:59.147Z,8.60
2023-03-06T13:51:54.036Z,8.70
2023-03-06T13:57:11.287Z,8.70
2023-03-06T14:00:09.256Z,8.60
2023-03-06T14:02:53.272Z,8.60
2023-03-06T14:08:16.825Z,8.40
2023-03-06T14:10:45.930Z,8.30
2023-03-06T14:13:34.942Z,9.60
2023-03-06T14:16:17.086Z,9.70
2023-03-06T14:18:50.276Z,9.80
2023-03-06T14:21:31.041Z,8.00
2023-03-06T14:24:00.751Z,8.00
2023-03-06T14:26:31.742Z,7.90
2023-03-06T14:29:00.688Z,7.80
2023-03-06T14:31:33.573Z,7.30
2023-03-06T14:34:06.875Z,7.50
2023-03-06T14:36:45.530Z,8.00
2023-03-06T14:39:27.199Z,8.00
2023-03-06T14:42:05.449Z,7.80
2023-03-06T14:47:24.938Z,7.40
2023-03-06T14:50:23.285Z,7.40
2023-03-06T14:52:56.370Z,7.10
2023-03-06T14:55:28.637Z,7.60
2023-03-06T14:58:05.147Z,7.10
2023-03-06T15:00:43.146Z,7.10
2023-03-06T15:03:34.301Z,5.40
2023-03-06T15:08:32.795Z,6.80
2023-03-06T15:11:05.496Z,6.70
2023-03-06T15:13:34.713Z,9.30
2023-03-06T15:18:38.907Z,6.40
2023-03-06T15:21:15.671Z,6.60
2023-03-06T15:23:48.655Z,6.90
2023-03-06T15:26:21.534Z,6.90
2023-03-06T15:29:13.802Z,6.70
2023-03-06T15:31:43.199Z,6.70
2023-03-06T15:36:44.980Z,5.20
2023-03-06T15:39:36.383Z,6.60
2023-03-06T15:42:20.520Z,6.70
2023-03-06T15:44:54.222Z,6.30
2023-03-06T15:47:24.016Z,6.20
2023-03-06T15:52:22.060Z,6.10
2023-03-06T15:57:26.899Z,7.70
2023-03-06T16:02:24.388Z,6.20
2023-03-06T16:04:52.349Z,6.20
2023-03-06T16:09:47.911Z,6.10
2023-03-06T16:12:17.473Z,6.00
2023-03-06T16:14:48.874Z,5.90
2023-03-06T16:17:16.808Z,5.90
2023-03-06T16:27:07.004Z,6.00
2023-03-06T16:34:35.324Z,5.50
2023-03-06T16:42:05.716Z,5.40
2023-03-06T16:47:26.902Z,5.30
2023-03-06T16:50:46.036Z,5.20
2023-03-06T17:06:45.066Z,5.00
2023-03-06T17:27:03.494Z,5.10
2023-03-06T17:56:41.817Z,4.50
2023-03-06T18:04:06.026Z,4.30
2023-03-06T18:11:32.794Z,4.20
2023-03-06T18:23:57.758Z,4.10
2023-03-06T18:26:29.280Z,4.20
2023-03-06T18:29:03.659Z,4.20
2023-03-06T18:31:37.763Z,4.20
2023-03-06T18:34:09.211Z,4.10
2023-03-06T18:39:08.628Z,4.00
2023-03-06T18:51:51.506Z,4.00
2023-03-06T18:54:25.444Z,5.10
2023-03-06T19:04:26.252Z,3.00
2023-03-06T19:12:10.036Z,2.50
2023-03-06T19:19:52.221Z,3.60
2023-03-06T19:24:56.724Z,3.80
2023-03-06T19:27:29.031Z,3.60
2023-03-06T19:32:50.703Z,3.60
2023-03-06T19:36:08.659Z,3.50
2023-03-06T19:38:43.017Z,3.30
2023-03-06T19:44:58.548Z,3.20
2023-03-06T19:47:28.923Z,3.20
2023-03-06T19:56:23.137Z,3.10
2023-03-06T20:01:27.594Z,3.00
2023-03-06T20:04:12.362Z,3.00
2023-03-06T20:07:06.148Z,3.00
2023-03-06T20:20:15.854Z,2.90
2023-03-06T20:24:26.475Z,2.80
2023-03-06T20:27:32.592Z,2.80
2023-03-06T20:30:17.551Z,2.80
2023-03-06T20:35:49.751Z,2.80
2023-03-06T20:38:32.857Z,2.80
2023-03-06T20:46:14.138Z,2.90
2023-03-06T20:48:55.973Z,2.90
2023-03-06T20:52:13.513Z,3.90
2023-03-06T21:34:07.952Z,3.00
2023-03-06T21:48:40.111Z,3.00
2023-03-06T21:56:36.213Z,3.00
